createdAt,value
2018-10-06T00:00:57.130Z,90.25
2018-10-06T00:01:57.127Z,91.11
2018-10-06T00:02:57.129Z,90.35
2018-10-06T00:03:57.127Z,90.92
2018-10-06T00:04:57.128Z,91.55
2018-10-06T00:05:57.117Z,92.26
2018-10-06T00:06:57.118Z,91.30
2018-10-06T00:07:57.118Z,90.16
2018-10-06T00:08:57.104Z,89.44
2018-10-06T00:09:57.119Z,90.16
2018-10-06T00:10:57.104Z,89.78
2018-10-06T00:11:57.103Z,91.11
2018-10-06T00:12:57.096Z,91.40
2018-10-06T00:13:57.095Z,90.64
2018-10-06T00:14:57.092Z,90.16
2018-10-06T00:15:57.086Z,89.59
2018-10-06T00:16:57.085Z,89.39
2018-10-06T00:17:57.089Z,89.39
2018-10-06T00:18:57.083Z,91.21
2018-10-06T00:19:57.069Z,91.69
2018-10-06T00:20:57.072Z,94.12
2018-10-06T00:21:57.063Z,92.74
2018-10-06T00:22:57.072Z,93.07
2018-10-06T00:23:57.064Z,96.46
2018-10-06T00:24:57.054Z,97.99
2018-10-06T00:25:57.057Z,97.18
2018-10-06T00:26:57.048Z,95.94
2018-10-06T00:27:57.047Z,94.03
2018-10-06T00:28:57.044Z,95.27
2018-10-06T00:29:57.045Z,94.31
2018-10-06T00:30:57.047Z,92.74
2018-10-06T00:32:05.672Z,92.36
2018-10-06T00:33:50.437Z,93.74
2018-10-06T00:34:50.420Z,93.74
2018-10-06T00:35:50.413Z,92.55
2018-10-06T00:36:50.405Z,91.59
2018-10-06T00:37:50.406Z,91.40
2018-10-06T00:38:50.403Z,90.73
2018-10-06T00:39:50.400Z,92.50
2018-10-06T00:40:50.400Z,94.60
2018-10-06T00:41:50.392Z,95.17
2018-10-06T00:42:50.396Z,95.89
2018-10-06T00:43:50.387Z,95.22
2018-10-06T00:44:50.385Z,95.08
2018-10-06T00:45:50.380Z,92.45
2018-10-06T00:46:50.375Z,92.88
2018-10-06T00:47:50.380Z,92.97
2018-10-06T00:48:50.371Z,91.88
2018-10-06T00:49:50.371Z,90.25
2018-10-06T00:50:50.362Z,90.35
2018-10-06T00:51:50.357Z,90.64
2018-10-06T00:52:50.359Z,92.79
2018-10-06T00:53:50.351Z,92.79
2018-10-06T00:54:50.351Z,94.41
2018-10-06T00:55:50.346Z,92.60
2018-10-06T00:56:50.346Z,92.50
2018-10-06T00:57:50.338Z,92.16
2018-10-06T00:58:50.351Z,92.45
2018-10-06T00:59:50.360Z,92.21
2018-10-06T01:00:50.325Z,91.78
2018-10-06T01:01:50.326Z,92.50
2018-10-06T01:02:50.327Z,92.50
2018-10-06T01:03:50.317Z,91.50
2018-10-06T01:04:50.318Z,90.92
2018-10-06T01:05:50.310Z,91.69
2018-10-06T01:06:50.310Z,92.97
2018-10-06T01:07:50.305Z,92.45
2018-10-06T01:08:50.302Z,93.07
2018-10-06T01:09:50.298Z,95.41
2018-10-06T01:10:50.295Z,98.51
2018-10-06T01:11:50.293Z,99.37
2018-10-06T01:12:50.285Z,99.99
2018-10-06T01:13:50.289Z,99.99
2018-10-06T01:14:50.283Z,99.99
2018-10-06T01:15:50.279Z,99.99
2018-10-06T01:16:50.271Z,99.99
2018-10-06T01:17:50.275Z,99.99
2018-10-06T01:18:50.277Z,98.56
2018-10-06T01:19:50.262Z,97.89
2018-10-06T01:20:50.258Z,95.94
2018-10-06T01:21:50.255Z,95.56
2018-10-06T01:22:50.250Z,95.27
2018-10-06T01:23:50.248Z,93.55
2018-10-06T01:24:50.251Z,93.07
2018-10-06T01:25:50.243Z,94.89
2018-10-06T01:26:50.236Z,96.17
2018-10-06T01:27:50.237Z,96.94
2018-10-06T01:28:50.230Z,95.61
2018-10-06T01:29:50.228Z,94.93
2018-10-06T01:30:50.226Z,95.98
2018-10-06T01:31:50.219Z,96.94
2018-10-06T01:32:50.216Z,97.75
2018-10-06T01:33:50.212Z,98.42
2018-10-06T01:34:50.219Z,97.85
2018-10-06T01:35:50.199Z,98.32
2018-10-06T01:36:50.232Z,97.22
2018-10-06T01:37:50.206Z,95.27
2018-10-06T01:38:50.191Z,93.26
2018-10-06T01:39:50.190Z,93.17
2018-10-06T01:40:50.185Z,93.02
2018-10-06T01:41:50.179Z,93.70
2018-10-06T01:42:50.178Z,95.03
2018-10-06T01:43:50.182Z,97.37
2018-10-06T01:44:50.175Z,98.61
2018-10-06T01:45:50.163Z,97.71
2018-10-06T01:46:50.170Z,96.84
2018-10-06T01:47:50.179Z,95.79
2018-10-06T01:48:50.155Z,95.03
2018-10-06T01:49:50.174Z,93.26
2018-10-06T01:50:50.163Z,95.12
2018-10-06T01:51:50.144Z,96.08
2018-10-06T01:52:50.144Z,95.89
2018-10-06T01:53:50.141Z,95.32
2018-10-06T01:54:50.134Z,95.22
2018-10-06T01:55:50.130Z,95.03
2018-10-06T01:56:50.124Z,94.46
2018-10-06T01:57:50.117Z,96.08
2018-10-06T01:58:50.117Z,96.41
2018-10-06T01:59:50.113Z,95.79
2018-10-06T02:00:50.111Z,95.79
2018-10-06T02:01:50.103Z,95.12
2018-10-06T02:02:50.100Z,96.46
2018-10-06T02:03:50.107Z,96.37
2018-10-06T02:04:50.098Z,94.65
2018-10-06T02:05:50.095Z,93.88
2018-10-06T02:06:50.086Z,95.89
2018-10-06T02:07:50.083Z,96.80
2018-10-06T02:08:50.074Z,95.89
2018-10-06T02:09:50.076Z,95.12
2018-10-06T02:10:50.076Z,93.31
2018-10-06T02:11:50.066Z,92.74
2018-10-06T02:12:50.064Z,93.41
2018-10-06T02:13:50.059Z,94.46
2018-10-06T02:14:50.054Z,94.89
2018-10-06T02:15:50.049Z,96.89
2018-10-06T02:16:50.049Z,97.17
2018-10-06T02:17:50.038Z,98.42
2018-10-06T02:18:50.042Z,97.27
2018-10-06T02:19:50.040Z,95.98
2018-10-06T02:20:50.036Z,96.32
2018-10-06T02:21:50.024Z,95.65
2018-10-06T02:22:50.026Z,97.46
2018-10-06T02:23:50.020Z,98.51
2018-10-06T02:24:50.019Z,96.89
2018-10-06T02:25:50.017Z,95.41
2018-10-06T02:26:50.019Z,97.85
2018-10-06T02:27:50.025Z,95.79
2018-10-06T02:28:50.010Z,95.79
2018-10-06T02:29:50.005Z,95.98
2018-10-06T02:30:50.004Z,96.17
2018-10-06T02:31:49.995Z,95.89
2018-10-06T02:32:49.988Z,94.93
2018-10-06T02:33:49.987Z,97.75
2018-10-06T02:34:49.979Z,99.37
2018-10-06T02:35:49.993Z,98.99
2018-10-06T02:36:50.057Z,99.56
2018-10-06T02:37:49.970Z,99.99
2018-10-06T02:38:49.965Z,97.99
2018-10-06T02:39:49.966Z,96.37
2018-10-06T02:40:49.961Z,96.56
2018-10-06T02:41:49.953Z,97.56
2018-10-06T02:42:49.948Z,98.70
2018-10-06T02:43:49.941Z,98.90
2018-10-06T02:44:49.942Z,99.37
2018-10-06T02:45:49.947Z,98.61
2018-10-06T02:46:49.932Z,99.18
2018-10-06T02:47:49.931Z,99.32
2018-10-06T02:48:49.933Z,99.27
2018-10-06T02:49:49.916Z,99.56
2018-10-06T02:50:49.915Z,98.80
2018-10-06T02:51:49.914Z,97.94
2018-10-06T02:52:49.910Z,97.37
2018-10-06T02:53:49.909Z,97.37
2018-10-06T02:54:49.903Z,98.03
2018-10-06T02:55:49.920Z,96.70
2018-10-06T02:56:49.889Z,94.84
2018-10-06T03:14:47.451Z,98.51
2018-10-06T03:15:47.429Z,99.99
2018-10-06T03:16:47.425Z,99.99
2018-10-06T03:17:47.409Z,99.99
2018-10-06T03:18:47.403Z,99.99
2018-10-06T03:19:47.397Z,99.99
2018-10-06T03:20:47.389Z,97.42
2018-10-06T03:21:47.387Z,95.32
2018-10-06T03:22:47.372Z,95.79
2018-10-06T03:23:47.372Z,95.98
2018-10-06T03:24:47.365Z,96.70
2018-10-06T03:25:47.364Z,98.42
2018-10-06T03:26:47.364Z,98.32
2018-10-06T03:27:47.345Z,98.56
2018-10-06T03:28:47.345Z,99.22
2018-10-06T03:29:47.340Z,97.75
2018-10-06T03:30:47.328Z,97.66
2018-10-06T03:31:47.335Z,98.51
2018-10-06T03:32:47.325Z,98.32
2018-10-06T03:33:47.321Z,97.85
2018-10-06T03:34:47.308Z,96.61
2018-10-06T03:35:47.310Z,97.85
2018-10-06T03:36:47.386Z,98.51
2018-10-06T03:37:47.304Z,97.85
2018-10-06T03:38:47.306Z,97.56
2018-10-06T03:39:47.289Z,96.70
2018-10-06T03:40:47.283Z,95.70
2018-10-06T03:41:47.286Z,95.84
2018-10-06T03:42:47.274Z,96.22
2018-10-06T03:43:47.274Z,97.37
2018-10-06T03:44:47.281Z,99.04
2018-10-06T03:45:47.268Z,98.90
2018-10-06T03:46:47.258Z,98.13
2018-10-06T03:47:47.258Z,97.94
2018-10-06T03:48:47.252Z,98.70
2018-10-06T03:49:47.253Z,99.13
2018-10-06T03:50:47.245Z,99.41
2018-10-06T03:51:47.240Z,99.89
2018-10-06T03:52:47.230Z,99.99
2018-10-06T03:53:47.309Z,99.99
2018-10-06T03:54:47.226Z,99.99
2018-10-06T03:55:47.221Z,99.99
2018-10-06T03:56:47.229Z,99.99
2018-10-06T03:57:47.211Z,99.99
2018-10-06T03:58:47.212Z,99.99
2018-10-06T03:59:47.204Z,99.99
2018-10-06T04:00:47.198Z,99.70
2018-10-06T04:01:47.199Z,97.75
2018-10-06T04:02:47.195Z,97.37
2018-10-06T04:03:47.185Z,97.66
2018-10-06T04:04:47.185Z,98.61
2018-10-06T04:05:47.180Z,98.85
2018-10-06T04:06:47.177Z,99.99
2018-10-06T04:07:47.170Z,99.99
2018-10-06T04:08:47.165Z,99.99
2018-10-06T04:09:47.162Z,99.04
2018-10-06T04:10:47.153Z,99.99
2018-10-06T04:11:47.158Z,99.99
2018-10-06T04:12:47.163Z,99.99
2018-10-06T04:13:47.152Z,99.99
2018-10-06T04:14:47.142Z,99.89
2018-10-06T04:15:47.140Z,99.32
2018-10-06T04:16:47.132Z,98.51
2018-10-06T04:17:47.133Z,97.46
2018-10-06T04:18:47.119Z,98.61
2018-10-06T04:19:47.120Z,97.66
2018-10-06T04:20:47.113Z,98.65
2018-10-06T04:21:47.110Z,98.90
2018-10-06T04:22:47.102Z,98.03
2018-10-06T04:23:47.099Z,97.08
2018-10-06T04:24:47.098Z,96.80
2018-10-06T04:25:47.094Z,98.51
2018-10-06T04:26:47.119Z,99.99
2018-10-06T04:27:47.100Z,99.99
2018-10-06T04:28:47.090Z,99.99
2018-10-06T04:29:47.081Z,99.99
2018-10-06T04:30:47.075Z,99.99
2018-10-06T04:31:47.062Z,99.99
2018-10-06T04:32:47.116Z,99.99
2018-10-06T04:33:47.058Z,99.99
2018-10-06T04:34:47.056Z,99.99
2018-10-06T04:35:47.060Z,99.99
2018-10-06T04:36:47.044Z,99.99
2018-10-06T04:37:47.050Z,99.99
2018-10-06T04:38:47.038Z,99.99
2018-10-06T04:39:47.032Z,99.99
2018-10-06T04:40:47.044Z,99.99
2018-10-06T04:41:47.025Z,99.99
2018-10-06T04:42:47.021Z,99.99
2018-10-06T04:43:47.017Z,99.99
2018-10-06T04:44:47.012Z,99.99
2018-10-06T04:45:47.006Z,99.99
2018-10-06T04:46:46.998Z,99.99
2018-10-06T04:47:47.000Z,99.37
2018-10-06T04:48:46.991Z,99.99
2018-10-06T04:49:46.996Z,99.99
2018-10-06T04:50:46.987Z,99.99
2018-10-06T04:51:46.986Z,99.99
2018-10-06T04:52:46.989Z,99.99
2018-10-06T04:53:46.981Z,99.99
2018-10-06T04:54:46.972Z,99.99
2018-10-06T04:55:46.962Z,99.99
2018-10-06T04:56:46.958Z,99.99
2018-10-06T04:57:46.965Z,99.99
2018-10-06T04:58:46.946Z,99.99
2018-10-06T04:59:46.946Z,99.27
2018-10-06T05:00:46.941Z,98.22
2018-10-06T05:01:46.936Z,98.32
2018-10-06T05:02:46.941Z,97.66
2018-10-06T05:03:46.942Z,97.66
2018-10-06T05:04:46.921Z,99.99
2018-10-06T05:05:46.917Z,99.99
2018-10-06T05:06:46.927Z,99.99
2018-10-06T05:07:46.910Z,99.99
2018-10-06T05:08:46.908Z,99.99
2018-10-06T05:09:46.904Z,99.99
2018-10-06T05:10:46.903Z,99.99
2018-10-06T05:11:46.893Z,99.99
2018-10-06T05:12:46.892Z,99.99
2018-10-06T05:13:46.891Z,99.99
2018-10-06T05:14:46.878Z,99.99
2018-10-06T05:15:46.871Z,99.99
2018-10-06T05:16:46.874Z,99.99
2018-10-06T05:17:46.871Z,99.99
2018-10-06T05:18:46.873Z,99.99
2018-10-06T05:19:46.860Z,99.99
2018-10-06T05:20:46.854Z,99.99
2018-10-06T05:21:46.846Z,99.99
2018-10-06T05:22:46.843Z,99.99
2018-10-06T05:23:46.857Z,99.99
2018-10-06T05:24:46.845Z,99.99
2018-10-06T05:25:46.831Z,99.99
2018-10-06T05:26:46.825Z,99.99
2018-10-06T05:27:46.830Z,99.99
2018-10-06T05:28:46.815Z,99.99
2018-10-06T05:29:46.819Z,98.99
2018-10-06T05:30:46.829Z,97.80
2018-10-06T05:31:46.802Z,98.18
2018-10-06T05:32:46.819Z,99.41
2018-10-06T05:33:46.791Z,99.99
2018-10-06T05:34:46.788Z,99.99
2018-10-06T05:35:46.794Z,99.99
2018-10-06T05:36:46.784Z,99.99
2018-10-06T05:37:46.781Z,99.99
2018-10-06T05:38:46.769Z,99.99
2018-10-06T05:39:46.769Z,99.99
2018-10-06T05:40:46.764Z,99.99
2018-10-06T05:41:46.774Z,99.99
2018-10-06T05:42:46.754Z,99.99
2018-10-06T05:43:46.793Z,99.99
2018-10-06T05:44:46.761Z,99.99
2018-10-06T05:45:46.769Z,99.99
2018-10-06T05:46:46.742Z,99.99
2018-10-06T05:47:46.731Z,99.99
2018-10-06T05:48:46.738Z,99.99
2018-10-06T05:49:46.731Z,99.99
2018-10-06T05:50:46.723Z,99.99
2018-10-06T05:51:46.716Z,99.99
2018-10-06T05:52:46.728Z,99.99
2018-10-06T05:53:46.702Z,99.99
2018-10-06T05:54:46.700Z,99.99
2018-10-06T05:55:46.700Z,99.99
2018-10-06T05:56:46.688Z,99.99
2018-10-06T05:57:46.689Z,98.51
2018-10-06T05:58:46.681Z,99.80
2018-10-06T05:59:46.684Z,99.99
2018-10-06T06:00:46.672Z,99.99
2018-10-06T06:01:46.673Z,99.60
2018-10-06T06:02:46.664Z,99.99
2018-10-06T06:03:46.724Z,99.99
2018-10-06T06:04:46.670Z,99.99
2018-10-06T06:05:46.660Z,99.99
2018-10-06T06:06:46.650Z,99.99
2018-10-06T06:07:46.637Z,99.99
2018-10-06T06:08:46.639Z,99.99
2018-10-06T06:09:46.687Z,99.99
2018-10-06T06:10:46.632Z,99.99
2018-10-06T06:11:46.627Z,99.99
2018-10-06T06:12:46.615Z,99.99
2018-10-06T06:13:46.617Z,99.99
2018-10-06T06:14:46.610Z,99.99
2018-10-06T06:15:46.736Z,99.99
2018-10-06T06:16:46.604Z,99.99
2018-10-06T06:17:46.637Z,99.99
2018-10-06T06:18:46.595Z,99.99
2018-10-06T06:19:46.598Z,99.99
2018-10-06T06:20:46.652Z,99.99
2018-10-06T06:21:46.621Z,99.99
2018-10-06T06:22:46.675Z,99.99
2018-10-06T06:23:46.615Z,99.99
2018-10-06T06:24:46.579Z,99.99
2018-10-06T06:25:55.225Z,99.99
2018-10-06T06:27:39.973Z,99.99
2018-10-06T06:28:39.955Z,99.99
2018-10-06T06:29:39.949Z,99.99
2018-10-06T06:30:39.992Z,99.99
2018-10-06T06:31:39.942Z,99.99
2018-10-06T06:32:39.941Z,99.99
2018-10-06T06:33:39.930Z,99.99
2018-10-06T06:34:39.937Z,99.99
2018-10-06T06:35:39.949Z,99.99
2018-10-06T06:36:39.918Z,99.99
2018-10-06T06:37:39.915Z,99.99
2018-10-06T06:38:39.911Z,99.99
2018-10-06T06:39:39.904Z,99.99
2018-10-06T06:40:40.314Z,99.99
2018-10-06T06:41:39.900Z,99.99
2018-10-06T06:42:39.911Z,99.99
2018-10-06T06:43:39.957Z,99.99
2018-10-06T06:44:40.281Z,99.99
2018-10-06T06:45:41.287Z,99.99
2018-10-06T06:46:39.880Z,99.99
2018-10-06T06:47:39.941Z,99.99
2018-10-06T06:48:39.872Z,99.99
2018-10-06T06:49:39.871Z,99.99
2018-10-06T06:50:39.870Z,99.99
2018-10-06T06:51:39.892Z,99.99
2018-10-06T06:52:39.968Z,99.99
2018-10-06T06:53:39.870Z,99.99
2018-10-06T06:54:39.878Z,99.52
2018-10-06T06:55:39.837Z,98.85
2018-10-06T06:56:39.857Z,99.37
2018-10-06T06:57:39.835Z,99.99
2018-10-06T06:58:39.886Z,99.99
2018-10-06T06:59:39.832Z,99.99
2018-10-06T07:00:39.825Z,99.99
2018-10-06T07:01:39.878Z,99.99
2018-10-06T07:02:39.862Z,99.99
2018-10-06T07:03:39.829Z,99.99
2018-10-06T07:04:39.842Z,99.99
2018-10-06T07:05:39.898Z,99.99
2018-10-06T07:06:39.805Z,99.99
2018-10-06T07:07:39.804Z,99.99
2018-10-06T07:08:39.817Z,99.99
2018-10-06T07:09:39.792Z,99.99
2018-10-06T07:10:39.783Z,99.99
2018-10-06T07:11:39.784Z,99.99
2018-10-06T07:12:39.855Z,99.99
2018-10-06T07:13:39.795Z,99.99
2018-10-06T07:14:39.774Z,99.99
2018-10-06T07:15:39.768Z,99.99
2018-10-06T07:16:39.765Z,99.99
2018-10-06T07:17:39.757Z,99.99
2018-10-06T07:18:39.825Z,99.99
2018-10-06T07:19:39.777Z,99.99
2018-10-06T07:20:39.753Z,99.99
2018-10-06T07:21:39.743Z,99.99
2018-10-06T07:22:39.742Z,99.99
2018-10-06T07:23:39.738Z,99.99
2018-10-06T07:24:39.770Z,99.99
2018-10-06T07:25:39.780Z,99.99
2018-10-06T07:26:39.734Z,99.99
2018-10-06T07:27:39.721Z,99.99
2018-10-06T07:28:39.809Z,99.99
2018-10-06T07:29:39.727Z,99.99
2018-10-06T07:30:39.726Z,99.99
2018-10-06T07:31:39.710Z,99.99
2018-10-06T07:32:39.714Z,99.99
2018-10-06T07:33:39.721Z,99.99
2018-10-06T07:34:39.708Z,99.99
2018-10-06T07:35:39.701Z,99.99
2018-10-06T07:36:39.699Z,99.99
2018-10-06T07:37:39.693Z,99.99
2018-10-06T07:38:39.689Z,99.99
2018-10-06T07:39:39.743Z,99.99
2018-10-06T07:40:39.692Z,99.99
2018-10-06T07:41:39.682Z,99.99
2018-10-06T07:42:39.699Z,99.99
2018-10-06T07:43:39.683Z,99.99
2018-10-06T07:44:39.699Z,99.99
2018-10-06T07:45:39.673Z,99.99
2018-10-06T07:46:39.713Z,99.99
2018-10-06T07:47:39.671Z,99.99
2018-10-06T07:48:39.669Z,99.99
2018-10-06T07:49:39.662Z,99.99
2018-10-06T07:50:39.652Z,99.99
2018-10-06T07:51:39.651Z,99.99
2018-10-06T07:52:39.669Z,99.99
2018-10-06T07:53:39.647Z,99.99
2018-10-06T07:54:39.654Z,99.99
2018-10-06T07:55:39.648Z,99.99
2018-10-06T07:56:39.659Z,99.99
2018-10-06T07:57:39.650Z,99.99
2018-10-06T07:58:39.644Z,99.99
2018-10-06T07:59:39.628Z,99.99
2018-10-06T08:00:39.628Z,99.99
2018-10-06T08:01:39.638Z,99.99
2018-10-06T08:02:39.645Z,99.99
2018-10-06T08:03:39.621Z,99.99
2018-10-06T08:04:39.641Z,99.99
2018-10-06T08:05:39.621Z,99.99
2018-10-06T08:06:39.618Z,99.99
2018-10-06T08:07:39.614Z,99.99
2018-10-06T08:08:39.604Z,99.99
2018-10-06T08:09:39.610Z,99.99
2018-10-06T08:10:39.607Z,99.99
2018-10-06T08:11:39.606Z,99.99
2018-10-06T08:12:39.596Z,99.99
2018-10-06T08:13:39.612Z,99.99
2018-10-06T08:14:39.597Z,99.99
2018-10-06T08:15:39.607Z,99.99
2018-10-06T08:16:39.596Z,99.43
2018-10-06T08:17:39.590Z,99.81
2018-10-06T08:18:39.603Z,99.99
2018-10-06T08:19:39.582Z,99.04
2018-10-06T08:20:39.579Z,98.66
2018-10-06T08:21:39.582Z,99.14
2018-10-06T08:22:39.576Z,98.95
2018-10-06T08:23:39.577Z,98.81
2018-10-06T08:24:39.577Z,97.56
2018-10-06T08:25:39.575Z,96.13
2018-10-06T08:26:39.568Z,96.13
2018-10-06T08:27:39.568Z,96.42
2018-10-06T08:28:39.572Z,97.47
2018-10-06T08:29:39.562Z,97.95
2018-10-06T08:30:39.560Z,97.37
2018-10-06T08:31:39.565Z,97.47
2018-10-06T08:32:39.559Z,98.04
2018-10-06T08:33:39.563Z,97.47
2018-10-06T08:34:39.552Z,97.95
2018-10-06T08:35:39.552Z,98.33
2018-10-06T08:36:39.557Z,97.66
2018-10-06T08:37:39.564Z,97.08
2018-10-06T08:38:39.573Z,97.18
2018-10-06T08:39:39.569Z,97.18
2018-10-06T08:40:39.566Z,96.89
2018-10-06T08:41:39.546Z,96.22
2018-10-06T08:42:39.609Z,95.84
2018-10-06T08:43:39.540Z,97.75
2018-10-06T08:44:39.578Z,96.94
2018-10-06T08:45:39.535Z,96.66
2018-10-06T08:46:39.536Z,96.66
2018-10-06T08:47:39.532Z,96.13
2018-10-06T08:48:39.535Z,97.18
2018-10-06T08:49:39.564Z,97.95
2018-10-06T08:50:39.544Z,98.33
2018-10-06T08:51:39.536Z,98.14
2018-10-06T08:52:39.536Z,97.04
2018-10-06T08:53:39.526Z,96.66
2018-10-06T08:54:39.528Z,97.42
2018-10-06T08:55:39.523Z,97.04
2018-10-06T08:56:39.538Z,96.75
2018-10-06T08:57:39.519Z,96.18
2018-10-06T08:58:39.512Z,96.89
2018-10-06T08:59:39.516Z,96.94
2018-10-06T09:00:39.513Z,96.94
2018-10-06T09:01:39.512Z,97.04
2018-10-06T09:02:39.512Z,96.84
2018-10-06T09:03:39.519Z,96.56
2018-10-06T09:04:39.515Z,96.66
2018-10-06T09:05:39.518Z,95.89
2018-10-06T09:06:39.506Z,94.65
2018-10-06T09:07:39.509Z,95.51
2018-10-06T09:08:39.496Z,95.61
2018-10-06T09:09:47.727Z,95.61
2018-10-06T09:11:33.168Z,95.07
2018-10-06T09:12:32.971Z,95.07
2018-10-06T09:13:32.895Z,94.02
2018-10-06T09:14:32.876Z,94.60
2018-10-06T09:15:32.885Z,93.93
2018-10-06T09:16:32.879Z,93.64
2018-10-06T09:17:32.885Z,94.02
2018-10-06T09:18:32.882Z,93.74
2018-10-06T09:19:32.894Z,93.83
2018-10-06T09:20:32.892Z,93.35
2018-10-06T09:21:32.878Z,92.49
2018-10-06T09:22:32.890Z,93.16
2018-10-06T09:23:32.866Z,92.68
2018-10-06T09:24:32.870Z,92.68
2018-10-06T09:25:32.874Z,92.58
2018-10-06T09:26:32.869Z,91.67
2018-10-06T09:27:32.866Z,91.58
2018-10-06T09:28:32.868Z,91.39
2018-10-06T09:29:32.865Z,90.91
2018-10-06T09:30:32.862Z,91.29
2018-10-06T09:31:32.867Z,91.29
2018-10-06T09:32:32.863Z,90.43
2018-10-06T09:33:32.882Z,90.23
2018-10-06T09:34:32.872Z,90.81
2018-10-06T09:35:32.885Z,91.39
2018-10-06T09:36:32.876Z,91.39
2018-10-06T09:37:32.865Z,91.63
2018-10-06T09:38:32.858Z,92.25
2018-10-06T09:39:32.864Z,91.49
2018-10-06T09:40:32.851Z,91.39
2018-10-06T09:41:32.860Z,91.10
2018-10-06T09:42:33.108Z,91.29
2018-10-06T09:43:32.874Z,90.43
2018-10-06T09:44:32.864Z,90.47
2018-10-06T09:45:32.859Z,89.90
2018-10-06T09:46:32.856Z,89.23
2018-10-06T09:47:32.854Z,88.56
2018-10-06T09:48:32.854Z,88.84
2018-10-06T09:49:32.854Z,89.04
2018-10-06T09:50:32.870Z,88.56
2018-10-06T09:51:32.856Z,88.46
2018-10-06T09:52:32.863Z,88.08
2018-10-06T09:53:32.852Z,87.74
2018-10-06T09:54:32.883Z,87.55
2018-10-06T09:55:32.869Z,88.37
2018-10-06T09:56:32.876Z,87.74
2018-10-06T09:57:32.882Z,87.84
2018-10-06T09:58:32.872Z,87.93
2018-10-06T09:59:32.980Z,87.93
2018-10-06T10:00:32.850Z,87.93
2018-10-06T10:01:32.856Z,87.64
2018-10-06T10:02:32.875Z,87.45
2018-10-06T10:03:32.848Z,88.75
2018-10-06T10:04:32.865Z,89.94
2018-10-06T10:05:32.959Z,87.68
2018-10-06T10:06:32.852Z,86.72
2018-10-06T10:07:32.856Z,86.92
2018-10-06T10:08:32.853Z,86.25
2018-10-06T10:09:32.857Z,87.45
2018-10-06T10:10:32.874Z,87.21
2018-10-06T10:11:32.850Z,86.82
2018-10-06T10:12:32.868Z,86.25
2018-10-06T10:13:32.881Z,86.34
2018-10-06T10:14:32.861Z,85.86
2018-10-06T10:15:32.960Z,86.25
2018-10-06T10:16:41.497Z,86.34
2018-10-06T10:18:26.376Z,86.63
2018-10-06T10:19:26.250Z,86.25
2018-10-06T10:20:26.248Z,86.25
2018-10-06T10:21:26.270Z,86.40
2018-10-06T10:22:26.509Z,86.34
2018-10-06T10:23:26.305Z,85.48
2018-10-06T10:24:26.250Z,85.67
2018-10-06T10:25:26.252Z,85.10
2018-10-06T10:26:26.285Z,85.28
2018-10-06T10:27:26.257Z,85.28
2018-10-06T10:28:26.289Z,84.33
2018-10-06T10:29:26.255Z,83.75
2018-10-06T10:30:26.269Z,84.33
2018-10-06T10:31:26.261Z,84.81
2018-10-06T10:32:26.323Z,85.44
2018-10-06T10:33:26.259Z,85.48
2018-10-06T10:34:26.289Z,85.48
2018-10-06T10:35:26.272Z,84.33
2018-10-06T10:36:26.275Z,83.41
2018-10-06T10:37:26.320Z,83.12
2018-10-06T10:38:26.257Z,82.74
2018-10-06T10:39:26.403Z,83.03
2018-10-06T10:40:26.316Z,82.74
2018-10-06T10:41:26.300Z,82.16
2018-10-06T10:42:26.269Z,81.59
2018-10-06T10:43:26.296Z,82.74
2018-10-06T10:44:26.351Z,81.97
2018-10-06T10:45:26.293Z,81.87
2018-10-06T10:46:26.298Z,81.59
2018-10-06T10:47:26.293Z,82.07
2018-10-06T10:48:26.345Z,81.20
2018-10-06T10:49:26.348Z,81.34
2018-10-06T10:50:26.359Z,81.40
2018-10-06T10:51:26.298Z,81.59
2018-10-06T10:52:26.305Z,81.97
2018-10-06T10:53:26.278Z,81.63
2018-10-06T10:54:26.303Z,81.97
2018-10-06T10:55:26.293Z,81.72
2018-10-06T10:56:26.309Z,81.43
2018-10-06T10:57:26.296Z,81.24
2018-10-06T10:58:26.288Z,81.05
2018-10-06T10:59:26.324Z,81.63
2018-10-06T11:00:26.314Z,81.43
2018-10-06T11:01:26.363Z,81.68
2018-10-06T11:02:26.290Z,81.05
2018-10-06T11:03:26.304Z,80.13
2018-10-06T11:04:26.322Z,80.76
2018-10-06T11:05:26.285Z,79.61
2018-10-06T11:06:26.329Z,79.46
2018-10-06T11:07:26.325Z,79.22
2018-10-06T11:08:26.290Z,78.50
2018-10-06T11:09:26.291Z,78.40
2018-10-06T11:10:26.300Z,78.59
2018-10-06T11:11:26.382Z,78.75
2018-10-06T11:12:26.303Z,79.42
2018-10-06T11:13:26.293Z,78.69
2018-10-06T11:14:26.306Z,79.07
2018-10-06T11:15:26.301Z,78.78
2018-10-06T11:16:26.312Z,79.32
2018-10-06T11:17:26.299Z,78.50
2018-10-06T11:18:26.305Z,77.83
2018-10-06T11:19:26.309Z,77.48
2018-10-06T11:20:26.346Z,77.83
2018-10-06T11:21:26.371Z,78.40
2018-10-06T11:22:26.321Z,76.90
2018-10-06T11:23:26.328Z,76.04
2018-10-06T11:24:26.306Z,76.23
2018-10-06T11:25:26.326Z,75.17
2018-10-06T11:26:26.308Z,74.88
2018-10-06T11:27:26.317Z,74.79
2018-10-06T11:28:26.381Z,75.37
2018-10-06T11:29:26.327Z,75.02
2018-10-06T11:30:26.315Z,74.25
2018-10-06T11:31:26.316Z,74.40
2018-10-06T11:32:26.327Z,74.30
2018-10-06T11:33:26.333Z,73.77
2018-10-06T11:34:26.332Z,72.36
2018-10-06T11:35:26.328Z,73.96
2018-10-06T11:36:26.358Z,74.15
2018-10-06T11:37:26.359Z,72.32
2018-10-06T11:38:26.353Z,72.42
2018-10-06T11:39:26.372Z,73.19
2018-10-06T11:40:26.354Z,73.09
2018-10-06T11:41:26.350Z,72.90
2018-10-06T11:42:26.336Z,73.38
2018-10-06T11:43:26.383Z,72.32
2018-10-06T11:44:26.339Z,71.84
2018-10-06T11:45:26.385Z,72.32
2018-10-06T11:46:26.374Z,73.09
2018-10-06T11:47:26.338Z,72.71
2018-10-06T11:48:26.347Z,72.61
2018-10-06T11:49:26.350Z,73.00
2018-10-06T11:50:26.424Z,73.54
2018-10-06T11:51:26.352Z,71.84
2018-10-06T11:52:26.375Z,71.75
2018-10-06T11:53:26.379Z,70.82
2018-10-06T11:54:26.366Z,71.46
2018-10-06T11:55:26.372Z,72.32
2018-10-06T11:56:26.365Z,70.72
2018-10-06T11:57:26.384Z,70.82
2018-10-06T11:58:26.389Z,71.46
2018-10-06T11:59:26.375Z,72.23
2018-10-06T12:00:26.482Z,71.30
2018-10-06T12:01:26.397Z,71.30
2018-10-06T12:02:26.401Z,70.92
2018-10-06T12:03:26.413Z,71.01
2018-10-06T12:04:26.385Z,70.34
2018-10-06T12:05:26.385Z,71.01
2018-10-06T12:06:26.390Z,70.53
2018-10-06T12:07:26.382Z,70.72
2018-10-06T12:08:26.392Z,70.62
2018-10-06T12:09:35.047Z,71.11
2018-10-06T12:11:19.812Z,71.49
2018-10-06T12:12:28.407Z,72.07
2018-10-06T12:14:14.221Z,70.62
2018-10-06T12:15:23.847Z,70.72
2018-10-06T12:17:07.638Z,70.82
2018-10-06T12:18:07.600Z,71.14
2018-10-06T12:19:07.591Z,71.88
2018-10-06T12:20:07.583Z,71.62
2018-10-06T12:21:07.599Z,72.55
2018-10-06T12:22:07.618Z,74.25
2018-10-06T12:23:07.626Z,74.63
2018-10-06T12:24:07.611Z,73.61
2018-10-06T12:25:07.654Z,73.32
2018-10-06T12:26:07.635Z,73.03
2018-10-06T12:27:07.626Z,73.03
2018-10-06T12:28:07.631Z,73.13
2018-10-06T12:29:07.602Z,74.09
2018-10-06T12:30:07.617Z,72.74
2018-10-06T12:31:07.629Z,71.53
2018-10-06T12:32:07.606Z,71.91
2018-10-06T12:33:07.618Z,72.36
2018-10-06T12:34:07.628Z,71.78
2018-10-06T12:35:07.699Z,72.55
2018-10-06T12:36:07.628Z,72.36
2018-10-06T12:37:07.631Z,71.81
2018-10-06T12:38:07.625Z,70.18
2018-10-06T12:39:07.637Z,70.18
2018-10-06T12:40:07.638Z,71.11
2018-10-06T12:41:07.667Z,70.28
2018-10-06T12:42:07.695Z,69.70
2018-10-06T12:43:07.669Z,70.09
2018-10-06T12:44:07.647Z,69.22
2018-10-06T12:45:07.652Z,69.12
2018-10-06T12:46:07.676Z,68.84
2018-10-06T12:47:07.647Z,69.70
2018-10-06T12:48:07.652Z,69.89
2018-10-06T12:49:07.678Z,69.31
2018-10-06T12:50:07.704Z,69.31
2018-10-06T12:51:07.662Z,69.60
2018-10-06T12:52:07.676Z,69.60
2018-10-06T12:53:16.346Z,69.51
2018-10-06T12:55:01.330Z,69.70
2018-10-06T12:56:01.294Z,70.18
2018-10-06T12:57:54.728Z,71.30
2018-10-06T12:58:54.702Z,71.69
2018-10-06T12:59:54.765Z,71.34
2018-10-06T13:00:54.697Z,71.04
2018-10-06T13:01:54.704Z,70.56
2018-10-06T13:02:54.749Z,70.37
2018-10-06T13:03:54.697Z,71.14
2018-10-06T13:04:54.707Z,69.51
2018-10-06T13:05:54.745Z,70.28
2018-10-06T13:06:54.763Z,70.56
2018-10-06T13:07:54.741Z,70.18
2018-10-06T13:08:54.714Z,70.28
2018-10-06T13:09:54.730Z,70.47
2018-10-06T13:10:54.738Z,70.47
2018-10-06T13:11:54.835Z,70.28
2018-10-06T13:12:54.759Z,69.99
2018-10-06T13:13:54.748Z,69.70
2018-10-06T13:14:54.732Z,69.25
2018-10-06T13:15:54.763Z,68.87
2018-10-06T13:16:54.746Z,69.15
2018-10-06T13:17:54.737Z,69.25